createdAt,value
2023-02-04T00:01:29.995Z,64.22
2023-02-04T00:03:56.520Z,62.85
2023-02-04T00:06:23.014Z,64.57
2023-02-04T00:08:49.532Z,65.03
2023-02-04T00:11:16.042Z,63.45
2023-02-04T00:13:42.608Z,63.77
2023-02-04T00:16:09.299Z,64.21
2023-02-04T00:18:35.815Z,63.72
2023-02-04T00:21:02.396Z,65.55
2023-02-04T00:23:29.140Z,64.44
2023-02-04T00:25:58.885Z,66.27
2023-02-04T00:28:25.409Z,64.62
2023-02-04T00:30:52.091Z,64.73
2023-02-04T00:33:18.637Z,65.07
2023-02-04T00:35:45.222Z,65.90
2023-02-04T00:38:11.752Z,67.94
2023-02-04T00:40:38.304Z,65.20
2023-02-04T00:43:05.379Z,63.81
2023-02-04T00:45:32.010Z,65.88
2023-02-04T00:47:59.413Z,65.51
2023-02-04T00:50:25.954Z,66.21
2023-02-04T00:52:52.608Z,65.72
2023-02-04T00:55:19.433Z,62.44
2023-02-04T00:57:49.252Z,64.36
2023-02-04T01:00:16.098Z,67.50
2023-02-04T01:02:44.036Z,66.19
2023-02-04T01:05:10.617Z,66.03
2023-02-04T01:07:37.876Z,63.55
2023-02-04T01:10:04.771Z,65.43
2023-02-04T01:12:31.305Z,64.16
2023-02-04T01:14:58.224Z,63.66
2023-02-04T01:17:25.065Z,63.61
2023-02-04T01:19:53.505Z,62.01
2023-02-04T01:22:20.253Z,62.78
2023-02-04T01:24:47.089Z,62.76
2023-02-04T01:27:32.381Z,62.57
2023-02-04T01:29:58.952Z,62.40
2023-02-04T01:32:25.527Z,62.17
2023-02-04T01:34:52.258Z,63.24
2023-02-04T01:37:18.905Z,61.67
2023-02-04T01:39:45.428Z,62.07
2023-02-04T01:42:13.499Z,61.80
2023-02-04T01:44:40.304Z,62.32
2023-02-04T01:47:07.004Z,61.26
2023-02-04T01:49:33.539Z,60.54
2023-02-04T01:52:00.246Z,62.26
2023-02-04T01:54:27.335Z,62.47
2023-02-04T01:56:55.389Z,61.32
2023-02-04T01:59:23.801Z,61.30
2023-02-04T02:01:52.504Z,62.13
2023-02-04T02:04:29.946Z,63.16
2023-02-04T02:07:01.692Z,63.31
2023-02-04T02:09:30.676Z,63.31
2023-02-04T02:11:57.698Z,62.41
2023-02-04T02:14:25.910Z,61.59
2023-02-04T02:16:52.533Z,62.67
2023-02-04T02:19:35.395Z,62.06
2023-02-04T02:22:22.077Z,61.36
2023-02-04T02:24:48.638Z,61.23
2023-02-04T02:27:15.186Z,61.03
2023-02-04T02:29:42.903Z,61.96
2023-02-04T02:32:12.583Z,60.92
2023-02-04T02:34:39.875Z,61.69
2023-02-04T02:37:08.947Z,61.01
2023-02-04T02:39:38.392Z,61.57
2023-02-04T02:42:05.220Z,61.05
2023-02-04T02:44:33.008Z,62.14
2023-02-04T02:47:00.276Z,61.03
2023-02-04T02:49:29.501Z,62.30
2023-02-04T02:51:56.040Z,62.55
2023-02-04T02:54:25.785Z,60.71
2023-02-04T02:56:55.619Z,60.51
2023-02-04T02:59:24.207Z,60.50
2023-02-04T03:02:01.271Z,60.30
2023-02-04T03:04:33.755Z,60.93
2023-02-04T03:07:01.310Z,61.05
2023-02-04T03:09:29.595Z,61.47
2023-02-04T03:11:56.429Z,60.55
2023-02-04T03:14:25.310Z,61.02
2023-02-04T03:16:54.328Z,63.36
2023-02-04T03:19:22.219Z,62.04
2023-02-04T03:21:49.515Z,60.19
2023-02-04T03:24:16.789Z,59.71
2023-02-04T03:26:43.423Z,61.38
2023-02-04T03:29:11.939Z,60.70
2023-02-04T03:31:38.888Z,61.94
2023-02-04T03:34:05.696Z,60.33
2023-02-04T03:36:32.613Z,61.17
2023-02-04T03:38:59.163Z,60.03
2023-02-04T03:41:25.702Z,60.10
2023-02-04T03:43:52.220Z,60.03
2023-02-04T03:46:18.860Z,60.42
2023-02-04T03:48:45.433Z,59.54
2023-02-04T03:51:11.984Z,61.01
2023-02-04T03:53:38.802Z,58.73
2023-02-04T03:56:05.452Z,61.01
2023-02-04T03:58:32.018Z,59.56
2023-02-04T04:00:58.783Z,59.64
2023-02-04T04:03:25.374Z,59.38
2023-02-04T04:05:51.885Z,59.88
2023-02-04T04:08:18.459Z,59.10
2023-02-04T04:10:45.032Z,58.55
2023-02-04T04:13:11.778Z,58.36
2023-02-04T04:15:38.348Z,57.45
2023-02-04T04:18:04.929Z,57.77
2023-02-04T04:20:31.770Z,56.83
2023-02-04T04:22:58.485Z,57.32
2023-02-04T04:25:25.351Z,58.23
2023-02-04T04:27:51.905Z,57.81
2023-02-04T04:30:18.652Z,56.94
2023-02-04T04:32:45.201Z,56.78
2023-02-04T04:35:11.701Z,57.69
2023-02-04T04:37:38.255Z,56.62
2023-02-04T04:40:05.160Z,56.46
2023-02-04T04:42:31.705Z,56.38
2023-02-04T04:44:58.250Z,56.63
2023-02-04T04:47:24.825Z,56.63
2023-02-04T04:49:51.371Z,56.12
2023-02-04T04:52:17.961Z,56.10
2023-02-04T04:54:44.530Z,55.57
2023-02-04T04:57:11.094Z,56.51
2023-02-04T04:59:37.652Z,56.50
2023-02-04T05:02:04.447Z,55.80
2023-02-04T05:04:31.057Z,56.61
2023-02-04T05:06:57.631Z,56.16
2023-02-04T05:09:24.162Z,56.93
2023-02-04T05:11:50.687Z,56.11
2023-02-04T05:14:17.212Z,55.25
2023-02-04T05:16:43.861Z,56.88
2023-02-04T05:19:10.436Z,55.48
2023-02-04T05:21:36.966Z,55.57
2023-02-04T05:24:03.552Z,56.96
2023-02-04T05:26:31.274Z,56.04
2023-02-04T05:29:00.446Z,55.81
2023-02-04T05:31:27.531Z,55.97
2023-02-04T05:33:54.558Z,56.52
2023-02-04T05:36:21.551Z,55.73
2023-02-04T05:38:48.183Z,55.48
2023-02-04T05:41:14.717Z,55.28
2023-02-04T05:43:41.286Z,55.32
2023-02-04T05:46:07.849Z,55.76
2023-02-04T05:48:34.460Z,55.53
2023-02-04T05:51:00.977Z,55.65
2023-02-04T05:53:27.547Z,55.89
2023-02-04T05:55:54.108Z,55.31
2023-02-04T05:58:20.598Z,56.80
2023-02-04T06:00:47.136Z,55.99
2023-02-04T06:03:14.502Z,56.12
2023-02-04T06:05:41.282Z,55.81
2023-02-04T06:08:07.826Z,56.57
2023-02-04T06:10:34.434Z,57.31
2023-02-04T06:13:01.048Z,56.80
2023-02-04T06:15:27.618Z,58.08
2023-02-04T06:17:54.210Z,57.06
2023-02-04T06:20:20.755Z,56.56
2023-02-04T06:22:47.613Z,56.61
2023-02-04T06:25:14.238Z,56.81
2023-02-04T06:27:40.797Z,55.62
2023-02-04T06:30:07.896Z,55.87
2023-02-04T06:32:34.469Z,56.15
2023-02-04T06:35:00.956Z,55.47
2023-02-04T06:37:27.516Z,55.94
2023-02-04T06:39:54.671Z,55.40
2023-02-04T06:42:21.307Z,55.35
2023-02-04T06:44:47.843Z,55.23
2023-02-04T06:47:14.363Z,55.40
2023-02-04T06:49:40.902Z,55.17
2023-02-04T06:52:07.462Z,54.72
2023-02-04T06:54:34.103Z,54.66
2023-02-04T06:57:06.518Z,54.64
2023-02-04T06:59:38.278Z,54.45
2023-02-04T07:02:06.872Z,54.53
2023-02-04T07:04:34.602Z,54.19
2023-02-04T07:07:01.190Z,54.32
2023-02-04T07:09:27.715Z,54.26
2023-02-04T07:11:54.295Z,54.48
2023-02-04T07:14:20.869Z,53.81
2023-02-04T07:16:47.450Z,53.94
2023-02-04T07:19:14.009Z,53.23
2023-02-04T07:21:40.561Z,53.47
2023-02-04T07:24:07.143Z,53.07
2023-02-04T07:26:34.338Z,52.58
2023-02-04T07:29:00.975Z,52.69
2023-02-04T07:31:27.762Z,52.58
2023-02-04T07:33:54.422Z,52.44
2023-02-04T07:36:21.084Z,52.24
2023-02-04T07:38:47.950Z,52.10
2023-02-04T07:41:14.624Z,51.68
2023-02-04T07:43:41.388Z,51.52
2023-02-04T07:46:07.981Z,51.26
2023-02-04T07:48:34.560Z,51.21
2023-02-04T07:51:01.106Z,51.47
2023-02-04T07:53:27.657Z,51.09
2023-02-04T07:55:54.179Z,50.96
2023-02-04T07:58:20.689Z,50.73
2023-02-04T08:00:47.244Z,51.16
2023-02-04T08:03:13.808Z,50.65
2023-02-04T08:05:40.328Z,50.53
2023-02-04T08:08:06.853Z,50.32
2023-02-04T08:10:34.182Z,49.98
2023-02-04T08:13:00.919Z,49.59
2023-02-04T08:15:27.439Z,49.02
2023-02-04T08:17:53.940Z,48.87
2023-02-04T08:20:20.567Z,48.69
2023-02-04T08:22:47.157Z,48.74
2023-02-04T08:25:13.812Z,48.28
2023-02-04T08:27:40.540Z,48.50
2023-02-04T08:30:07.681Z,48.16
2023-02-04T08:32:34.291Z,48.55
2023-02-04T08:35:01.338Z,48.18
2023-02-04T08:37:28.196Z,48.36
2023-02-04T08:39:55.865Z,48.15
2023-02-04T08:42:22.521Z,47.48
2023-02-04T08:44:49.226Z,48.08
2023-02-04T08:47:16.032Z,47.43
2023-02-04T08:49:42.662Z,47.88
2023-02-04T08:52:09.375Z,47.44
2023-02-04T08:54:36.196Z,47.28
2023-02-04T08:57:02.989Z,47.14
2023-02-04T08:59:29.711Z,46.92
2023-02-04T09:01:56.282Z,47.20
2023-02-04T09:04:23.510Z,46.34
2023-02-04T09:06:51.373Z,46.15
2023-02-04T09:09:18.015Z,46.60
2023-02-04T09:11:44.550Z,46.56
2023-02-04T09:14:11.393Z,46.77
2023-02-04T09:16:38.025Z,46.11
2023-02-04T09:19:05.476Z,46.07
2023-02-04T09:21:32.010Z,45.63
2023-02-04T09:23:58.644Z,45.79
2023-02-04T09:26:25.227Z,45.26
2023-02-04T09:28:51.748Z,46.55
2023-02-04T09:31:18.839Z,46.91
2023-02-04T09:33:45.497Z,46.60
2023-02-04T09:36:12.388Z,45.88
2023-02-04T09:38:39.146Z,46.15
2023-02-04T09:41:12.164Z,46.10
2023-02-04T09:43:42.898Z,45.88
2023-02-04T09:46:19.408Z,45.75
2023-02-04T09:48:46.085Z,46.20
2023-02-04T09:51:16.755Z,47.07
2023-02-04T09:53:43.362Z,46.03
2023-02-04T09:56:11.951Z,46.58
2023-02-04T09:58:38.478Z,45.85
2023-02-04T10:01:15.733Z,45.31
2023-02-04T10:03:48.372Z,46.20
2023-02-04T10:06:17.511Z,45.89
2023-02-04T10:08:47.328Z,45.63
2023-02-04T10:11:14.903Z,45.41
2023-02-04T10:13:45.057Z,45.71
2023-02-04T10:16:29.623Z,45.35
2023-02-04T10:19:01.754Z,44.61
2023-02-04T10:21:32.085Z,45.67
2023-02-04T10:24:01.228Z,44.83
2023-02-04T10:26:29.952Z,44.13
2023-02-04T10:29:04.626Z,44.42
2023-02-04T10:31:37.051Z,44.56
2023-02-04T10:34:07.587Z,44.65
2023-02-04T10:36:34.296Z,45.43
2023-02-04T10:39:10.828Z,44.61
2023-02-04T10:41:39.960Z,43.72
2023-02-04T10:44:12.762Z,43.41
2023-02-04T10:46:39.371Z,43.54
2023-02-04T10:49:17.756Z,44.29
2023-02-04T10:51:44.635Z,44.71
2023-02-04T10:54:31.382Z,44.64
2023-02-04T10:57:14.423Z,44.11
2023-02-04T10:59:41.927Z,43.76
2023-02-04T11:03:04.171Z,43.53
2023-02-04T11:05:35.639Z,44.01
2023-02-04T11:08:03.794Z,44.32
2023-02-04T11:10:33.131Z,44.95
2023-02-04T11:13:01.252Z,44.35
2023-02-04T11:15:51.222Z,44.58
2023-02-04T11:18:20.394Z,44.14
2023-02-04T11:20:52.100Z,43.19
2023-02-04T11:23:27.457Z,43.24
2023-02-04T11:26:17.294Z,44.48
2023-02-04T11:29:16.711Z,45.40
2023-02-04T11:31:46.511Z,45.94
2023-02-04T11:34:44.902Z,47.89
2023-02-04T11:37:28.463Z,46.14
2023-02-04T11:39:59.921Z,46.20
2023-02-04T11:42:41.199Z,44.30
2023-02-04T11:45:17.736Z,38.97
2023-02-04T11:47:44.567Z,33.70
2023-02-04T11:50:17.166Z,31.76
2023-02-04T11:52:43.796Z,31.95
2023-02-04T11:55:11.961Z,31.67
2023-02-04T11:57:44.233Z,32.30
2023-02-04T12:00:19.977Z,34.70
2023-02-04T12:02:49.185Z,37.02
2023-02-04T12:05:18.437Z,37.70
2023-02-04T12:07:45.979Z,38.85
2023-02-04T12:10:16.829Z,40.03
2023-02-04T12:12:49.212Z,40.29
2023-02-04T12:15:21.328Z,40.78
2023-02-04T12:18:01.039Z,40.80
2023-02-04T12:20:27.565Z,40.69
2023-02-04T12:22:54.322Z,40.84
2023-02-04T12:25:20.854Z,41.05
2023-02-04T12:27:47.388Z,40.68
2023-02-04T12:30:14.084Z,40.37
2023-02-04T12:32:40.604Z,39.54
2023-02-04T12:35:07.591Z,38.95
2023-02-04T12:37:34.265Z,37.76
2023-02-04T12:40:00.797Z,36.73
2023-02-04T12:42:27.320Z,36.38
2023-02-04T12:44:53.856Z,35.57
2023-02-04T12:47:20.411Z,35.62
2023-02-04T12:49:46.992Z,36.08
2023-02-04T12:52:13.668Z,36.31
2023-02-04T12:54:40.196Z,36.98
2023-02-04T12:57:06.766Z,36.40
2023-02-04T12:59:33.456Z,35.62
2023-02-04T13:02:00.072Z,36.84
2023-02-04T13:04:26.679Z,36.49
2023-02-04T13:06:53.234Z,36.83
2023-02-04T13:09:19.778Z,37.00
2023-02-04T13:11:46.342Z,35.94
2023-02-04T13:14:12.886Z,36.38
2023-02-04T13:16:39.425Z,36.88
2023-02-04T13:19:06.065Z,36.52
2023-02-04T13:21:32.680Z,36.42
2023-02-04T13:23:59.818Z,37.39
2023-02-04T13:26:26.519Z,36.96
2023-02-04T13:28:53.212Z,36.26
2023-02-04T13:31:19.930Z,36.75
2023-02-04T13:33:46.584Z,36.63
2023-02-04T13:36:13.276Z,34.24
2023-02-04T13:38:39.938Z,32.41
2023-02-04T13:41:06.530Z,32.74
2023-02-04T13:43:33.140Z,35.41
2023-02-04T13:46:00.660Z,36.35
2023-02-04T13:48:27.219Z,38.33
2023-02-04T13:50:53.740Z,39.11
2023-02-04T13:53:20.245Z,40.07
2023-02-04T13:55:46.841Z,40.57
2023-02-04T13:58:13.656Z,40.66
2023-02-04T14:00:40.306Z,41.67
2023-02-04T14:03:06.865Z,41.36
2023-02-04T14:05:33.412Z,42.02
2023-02-04T14:08:00.977Z,41.45
2023-02-04T14:10:27.628Z,42.01
2023-02-04T14:12:54.238Z,42.91
2023-02-04T14:15:20.762Z,42.72
2023-02-04T14:17:47.400Z,42.86
2023-02-04T14:20:14.062Z,43.14
2023-02-04T14:22:40.759Z,42.74
2023-02-04T14:25:09.818Z,42.33
2023-02-04T14:27:38.409Z,42.30
2023-02-04T14:30:06.173Z,42.26
2023-02-04T14:32:32.709Z,42.36
2023-02-04T14:34:59.242Z,42.10
2023-02-04T14:37:28.388Z,42.30
2023-02-04T14:39:55.121Z,42.30
2023-02-04T14:42:21.657Z,42.31
2023-02-04T14:44:48.216Z,42.42
2023-02-04T14:47:14.900Z,42.44
2023-02-04T14:49:41.490Z,42.14
2023-02-04T14:52:09.713Z,42.26
2023-02-04T14:54:37.171Z,41.84
2023-02-04T14:57:04.401Z,42.29
2023-02-04T14:59:30.931Z,42.11
2023-02-04T15:01:57.674Z,41.57
2023-02-04T15:04:24.247Z,41.92
2023-02-04T15:06:53.852Z,41.89
2023-02-04T15:09:20.425Z,42.41
2023-02-04T15:11:47.080Z,42.05
2023-02-04T15:14:13.759Z,42.13
2023-02-04T15:16:41.966Z,41.95
2023-02-04T15:19:09.208Z,41.76
2023-02-04T15:21:36.044Z,41.61
2023-02-04T15:24:02.571Z,41.38
2023-02-04T15:26:29.117Z,42.13
2023-02-04T15:28:55.682Z,42.16
2023-02-04T15:31:23.779Z,42.45
2023-02-04T15:33:50.911Z,42.07
2023-02-04T15:36:17.522Z,42.17
2023-02-04T15:38:44.412Z,42.15
2023-02-04T15:41:31.767Z,41.95
2023-02-04T15:43:58.323Z,42.11
2023-02-04T15:46:24.874Z,41.82
2023-02-04T15:48:51.460Z,42.10
2023-02-04T15:51:18.033Z,41.60
2023-02-04T15:53:44.619Z,41.81
2023-02-04T15:56:11.199Z,42.30
2023-02-04T15:58:38.378Z,42.15
2023-02-04T16:01:05.173Z,42.35
2023-02-04T16:03:31.764Z,42.84
2023-02-04T16:05:58.326Z,42.46
2023-02-04T16:08:24.882Z,43.13
2023-02-04T16:10:53.880Z,42.79
2023-02-04T16:13:21.217Z,42.57
2023-02-04T16:15:47.784Z,42.93
2023-02-04T16:18:14.366Z,43.09
2023-02-04T16:20:40.885Z,43.43
2023-02-04T16:23:08.084Z,42.73
2023-02-04T16:25:35.018Z,43.11
2023-02-04T16:28:02.350Z,43.27
2023-02-04T16:30:28.942Z,43.32
2023-02-04T16:32:55.492Z,43.49
2023-02-04T16:35:22.088Z,43.68
2023-02-04T16:37:48.682Z,43.82
2023-02-04T16:40:15.315Z,43.71
2023-02-04T16:42:41.863Z,43.87
2023-02-04T16:45:08.956Z,43.65
2023-02-04T16:47:35.607Z,43.63
2023-02-04T16:50:02.672Z,43.64
2023-02-04T16:52:29.697Z,43.63
2023-02-04T16:54:56.392Z,44.20
2023-02-04T16:57:23.224Z,43.93
2023-02-04T16:59:49.959Z,43.67
2023-02-04T17:02:16.623Z,44.04
2023-02-04T17:04:43.151Z,44.27
2023-02-04T17:07:09.829Z,44.14
2023-02-04T17:09:36.959Z,43.99
2023-02-04T17:12:03.628Z,43.90
2023-02-04T17:14:30.221Z,44.06
2023-02-04T17:16:56.769Z,44.45
2023-02-04T17:19:24.192Z,44.04
2023-02-04T17:21:50.820Z,43.81
2023-02-04T17:24:17.495Z,43.91
2023-02-04T17:26:44.036Z,44.05
2023-02-04T17:29:13.822Z,44.19
2023-02-04T17:31:43.135Z,44.20
2023-02-04T17:34:10.602Z,44.27
2023-02-04T17:36:37.518Z,44.36
2023-02-04T17:39:05.067Z,44.31
2023-02-04T17:41:32.406Z,44.44
2023-02-04T17:43:59.639Z,44.35
2023-02-04T17:46:26.627Z,44.88
2023-02-04T17:48:53.340Z,44.58
2023-02-04T17:51:19.964Z,44.26
2023-02-04T17:53:46.539Z,44.54
2023-02-04T17:56:14.506Z,45.06
2023-02-04T17:58:41.857Z,45.03
2023-02-04T18:01:18.746Z,44.72
2023-02-04T18:03:48.617Z,44.51
2023-02-04T18:06:25.112Z,44.35
2023-02-04T18:08:52.746Z,44.31
2023-02-04T18:11:27.418Z,44.23
2023-02-04T18:13:59.437Z,43.90
2023-02-04T18:16:30.095Z,44.26
2023-02-04T18:19:08.429Z,44.31
2023-02-04T18:21:36.973Z,44.10
2023-02-04T18:24:20.358Z,43.99
2023-02-04T18:26:50.106Z,44.13
2023-02-04T18:29:26.843Z,44.02
2023-02-04T18:32:18.051Z,43.89
2023-02-04T18:34:46.958Z,43.54
2023-02-04T18:37:35.833Z,43.45
2023-02-04T18:40:23.868Z,43.45
2023-02-04T18:42:53.982Z,42.91
2023-02-04T18:45:24.991Z,43.32
2023-02-04T18:47:55.181Z,43.03
2023-02-04T18:50:33.384Z,43.13
2023-02-04T18:53:12.405Z,42.68
2023-02-04T18:55:41.646Z,42.03
2023-02-04T18:58:31.050Z,42.19
2023-02-04T19:01:03.562Z,42.24
2023-02-04T19:03:33.389Z,42.34
2023-02-04T19:06:02.459Z,42.99
2023-02-04T19:08:40.519Z,42.72
2023-02-04T19:11:23.166Z,42.93
2023-02-04T19:13:52.835Z,43.43
2023-02-04T19:16:25.892Z,43.36
2023-02-04T19:18:56.765Z,43.22
2023-02-04T19:21:31.421Z,43.13
2023-02-04T19:24:21.352Z,43.93
2023-02-04T19:26:55.278Z,44.49
2023-02-04T19:29:23.153Z,44.24
2023-02-04T19:31:52.803Z,44.51
2023-02-04T19:34:38.068Z,44.13
2023-02-04T19:37:26.410Z,44.60
2023-02-04T19:39:55.133Z,44.48
2023-02-04T19:42:28.573Z,44.19
2023-02-04T19:44:59.240Z,44.31
2023-02-04T19:47:37.496Z,44.34
2023-02-04T19:50:13.372Z,44.20
2023-02-04T19:52:54.407Z,44.44
2023-02-04T19:55:28.030Z,44.92
2023-02-04T19:57:58.841Z,45.29
2023-02-04T20:00:28.412Z,45.63
2023-02-04T20:02:56.878Z,45.43
2023-02-04T20:05:24.090Z,45.37
2023-02-04T20:07:50.604Z,45.99
2023-02-04T20:10:25.018Z,45.63
2023-02-04T20:12:55.727Z,45.92
2023-02-04T20:15:25.546Z,46.25
2023-02-04T20:17:52.818Z,46.24
2023-02-04T20:20:29.791Z,46.22
2023-02-04T20:23:23.074Z,46.91
2023-02-04T20:25:50.420Z,47.09
2023-02-04T20:28:36.155Z,47.60
2023-02-04T20:31:15.567Z,47.21
2023-02-04T20:33:49.163Z,47.78
2023-02-04T20:36:18.398Z,47.45
2023-02-04T20:38:45.781Z,47.18
2023-02-04T20:41:22.345Z,47.39
2023-02-04T20:43:49.905Z,47.52
2023-02-04T20:46:25.636Z,47.90
2023-02-04T20:48:52.613Z,47.76
2023-02-04T20:51:23.247Z,47.72
2023-02-04T20:53:55.280Z,47.28
2023-02-04T20:56:26.585Z,47.68
2023-02-04T20:59:12.326Z,47.83
2023-02-04T21:01:46.855Z,47.95
2023-02-04T21:04:36.633Z,48.06
2023-02-04T21:07:16.775Z,48.16
2023-02-04T21:09:43.431Z,48.31
2023-02-04T21:12:10.544Z,48.62
2023-02-04T21:14:37.287Z,48.69
2023-02-04T21:17:04.455Z,48.46
2023-02-04T21:19:33.074Z,48.95
2023-02-04T21:21:59.700Z,49.64
2023-02-04T21:24:26.864Z,49.51
2023-02-04T21:26:53.888Z,49.63
2023-02-04T21:29:20.490Z,49.23
2023-02-04T21:31:47.059Z,49.54
2023-02-04T21:34:14.720Z,49.21
2023-02-04T21:36:41.251Z,49.17
2023-02-04T21:39:07.821Z,49.40
2023-02-04T21:41:34.430Z,49.20
2023-02-04T21:44:00.941Z,49.31
2023-02-04T21:46:27.560Z,49.33
2023-02-04T21:48:54.079Z,48.95
2023-02-04T21:51:20.629Z,48.62
2023-02-04T21:53:47.194Z,49.35
2023-02-04T21:56:14.364Z,49.39
2023-02-04T21:58:40.970Z,49.02
2023-02-04T22:01:07.504Z,49.11
2023-02-04T22:03:34.134Z,49.05
2023-02-04T22:06:00.785Z,49.33
2023-02-04T22:08:27.409Z,49.08
2023-02-04T22:10:53.918Z,49.41
2023-02-04T22:13:20.457Z,49.03
2023-02-04T22:15:48.100Z,49.06
2023-02-04T22:18:14.747Z,49.13
2023-02-04T22:20:41.301Z,49.03
2023-02-04T22:23:08.026Z,49.10
2023-02-04T22:25:34.925Z,49.09
2023-02-04T22:28:01.740Z,49.24
2023-02-04T22:30:28.335Z,48.94
2023-02-04T22:32:56.405Z,48.93
2023-02-04T22:35:23.098Z,49.38
2023-02-04T22:37:49.637Z,49.29
2023-02-04T22:40:16.217Z,49.16
2023-02-04T22:42:42.821Z,49.39
2023-02-04T22:45:10.304Z,49.17
2023-02-04T22:47:37.007Z,49.61
2023-02-04T22:50:03.817Z,49.59
2023-02-04T22:52:30.391Z,48.88
2023-02-04T22:54:56.907Z,49.27
2023-02-04T22:57:23.612Z,48.82
2023-02-04T22:59:50.138Z,49.12
2023-02-04T23:02:16.716Z,49.30
2023-02-04T23:04:44.082Z,49.09
2023-02-04T23:07:12.257Z,49.13
2023-02-04T23:09:39.639Z,48.79
2023-02-04T23:12:15.234Z,48.96
2023-02-04T23:14:44.503Z,49.35
2023-02-04T23:17:12.226Z,49.30
2023-02-04T23:19:38.789Z,49.29
2023-02-04T23:22:06.050Z,49.80
2023-02-04T23:24:33.244Z,49.28
2023-02-04T23:27:00.216Z,49.58
2023-02-04T23:29:28.425Z,49.92
2023-02-04T23:31:55.721Z,50.00
2023-02-04T23:34:22.285Z,49.64
2023-02-04T23:36:51.109Z,49.99
2023-02-04T23:39:18.852Z,50.10
2023-02-04T23:41:45.521Z,50.05
2023-02-04T23:44:12.324Z,50.51
2023-02-04T23:46:38.856Z,50.74
2023-02-04T23:49:05.510Z,50.67
2023-02-04T23:51:32.919Z,50.88
2023-02-04T23:53:59.576Z,50.29
2023-02-04T23:56:26.106Z,50.66
2023-02-04T23:58:53.593Z,50.71
